Impacts TAF Board
For situational awareness. Not to be used for flight planning purposes.
IDs:

CYVR - Vancouver Intl, BC, CN

Issued at 2341 UTC 05 Dec 2019
Updated at 0115 UTC 06 Dec 2019
Potential Impact None Slight Moderate High
Time0100Z 06/02Z 06/03Z 06/04Z 06/05Z 06/06Z 06/07Z 06/08Z 06/09Z 06/10Z 06/11Z 06/12Z 06/13Z 06/14Z>>
Type OBS PRVL
  [TEMP]  
PRVL
  [TEMP]  
PRVL
  [TEMP]  
PRVL
  [TEMP]  
PRVL
  [TEMP]  
PRVL
  [TEMP]  
PRVL
  [TEMP]  
PRVL
  [TEMP]  
PRVL
  [TEMP]  
PRVL
  [TEMP]  
PRVL
  [TEMP]  
PRVL
  [TEMP]  
PRVL
  [TEMP]  
VIS 15 >6
  [5]  
>6
  [3]  
>6
  [3]  
>6
  [3]  
>6
  [3]  
>6
  [3]  
>6
  [3]  
>6
  [3]  
>6
  [3]  
>6
  [3]  
>6
  [3]  
>6
  [3]  
>6
  [3]  
CIG 30 40
  [20]  
40
  [20]  
40
  [20]  
40
  [20]  
40
  [20]  
40
  [20]  
40
  [20]  
40
  [20]  
40
  [20]  
40
  [20]  
40
  [20]  
40
  [20]  
40
  [20]  
Cover OVC OVC
  [OVC]  
OVC
  [OVC]  
OVC
  [OVC]  
OVC
  [OVC]  
OVC
  [OVC]  
OVC
  [OVC]  
OVC
  [OVC]  
OVC
  [OVC]  
OVC
  [OVC]  
OVC
  [OVC]  
OVC
  [OVC]  
OVC
  [OVC]  
OVC
  [OVC]  
FltCat MVFR VFR
  [MVFR]  
VFR
  [MVFR]  
VFR
  [MVFR]  
VFR
  [MVFR]  
VFR
  [MVFR]  
VFR
  [MVFR]  
VFR
  [MVFR]  
VFR
  [MVFR]  
VFR
  [MVFR]  
VFR
  [MVFR]  
VFR
  [MVFR]  
VFR
  [MVFR]  
VFR
  [MVFR]  
WX -- --
  [-RA BR]  
-RA
  [SHRA BR]  
-RA
  [SHRA BR]  
-RA
  [SHRA BR]  
-RA
  [SHRA BR]  
-RA
  [SHRA BR]  
-RA
  [SHRA BR]  
-RA
  [SHRA BR]  
-RA
  [SHRA BR]  
-RA
  [SHRA BR]  
-RA
  [SHRA BR]  
-RA
  [SHRA BR]  
-RA
  [SHRA BR]  
WDir 220 VRB
[VRB]
80
[80]
80
[80]
80
[80]
80
[80]
80
[80]
80
[80]
80
[80]
80
[80]
80
[80]
80
[80]
80
[80]
80
[80]
WSpd 4 3
  [3]  
6
  [6]  
6
  [6]  
6
  [6]  
6
  [6]  
6
  [6]  
6
  [6]  
6
  [6]  
6
  [6]  
6
  [6]  
6
  [6]  
6
  [6]  
6
  [6]  
WGst -- --
  [--]  
--
  [--]  
--
  [--]  
--
  [--]  
--
  [--]  
--
  [--]  
--
  [--]  
--
  [--]  
--
  [--]  
--
  [--]  
--
  [--]  
--
  [--]  
--
  [--]  
Raw TAF
TAF CYVR 052341Z 0600/0706 VRB03KT P6SM SCT020 OVC040
  TEMPO 0600/0603 5SM -RA BR SCT005 OVC020
  FM060300 08006KT P6SM -RA FEW005 SCT020 OVC040
  TEMPO 0603/0618 3SM SHRA BR SCT005 OVC020
  FM061800 21006KT P6SM SCT005 BKN050
  BECMG 0619/0621 08006KT
  FM070300 10008KT P6SM -RA SCT005 BKN015 OVC040 RMK NXT FCST BY 060300Z


Raw METAR
CYVR 060100Z 22004KT 180V250 15SM OVC030 06/03 A3004 RMK SC8 SLP174
CYVR 060000Z 00000KT 20SM OVC030 06/03 A3006 RMK SC8 SLP180
CYVR 052300Z 23003KT 120V240 20SM BKN038 BKN072 07/03 A3006 RMK SC7AC1 AC TR SLP181

METAR Board
Radar Display
Forecast Discussion
For situational awareness. Not to be used for flight planning purposes.